Terminal Aerodrome Forecast
Issued by NWS Binghamton, NY

Home | Current Version | Previous Version | Text Only | Print | Product List | Glossary On
Versions: 1 2 3 4 5 6 7 8 9 10 11 12 13 14 15 16 17 18 19 20 21 22
000
FTUS41 KBGM 251700
TAFSYR
TAF
KSYR 251740Z 2518/2618 25012G22KT P6SM SCT045 BKN100
     FM252000 29010KT P6SM -SHRA OVC050
      TEMPO 2520/2524 OVC025
     FM260000 28011KT P6SM OVC025
      TEMPO 2608/2612 3SM -SHRA OVC015
     FM261600 29018G28KT P6SM OVC035=

USA.gov is the U.S. government's official web portal to all federal, state and local government web resources and services.